Time;durP1;ratioP1;P1;durP2;ratioP2;P2;SDS_P1;SDS_P2;PMS_P1;PMS_P2;Temp;Humidity;BMP_temperature;BMP_pressure;BME280_temperature;BME280_humidity;BME280_pressure;Samples;Min_cycle;Max_cycle;Signal;HPM_P1;HPM_P2
2022/04/26 03:37:45;;;;;;;10.05;4.80;;;307.90;2304.00;;;;;;5029428;28;20427;-55
2022/04/26 03:40:11;;;;;;;6.22;4.60;;;307.90;2304.00;;;;;;5027853;28;20034;-55
2022/04/26 03:42:37;;;;;;;11.00;7.05;;;307.80;2304.00;;;;;;5029380;28;20068;-55
2022/04/26 03:45:03;;;;;;;6.75;3.67;;;307.90;2304.00;;;;;;5029395;28;20028;-54
2022/04/26 03:47:29;;;;;;;7.55;3.85;;;308.00;2304.00;;;;;;5029205;28;20388;-56
2022/04/26 03:49:54;;;;;;;4.43;2.63;;;308.00;2304.00;;;;;;5029593;28;20026;-55
2022/04/26 03:52:21;;;;;;;5.30;2.90;;;308.00;2304.00;;;;;;5029104;28;20062;-54
2022/04/26 03:54:46;;;;;;;2.72;1.70;;;308.10;2304.00;;;;;;5029268;28;20029;-54
2022/04/26 03:57:12;;;;;;;4.10;2.17;;;332.80;2329.60;;;;;;5028995;28;20026;-55
2022/04/26 03:59:38;;;;;;;4.75;2.40;;;332.90;2329.60;;;;;;5029079;28;20037;-56
2022/04/26 04:02:04;;;;;;;2.58;1.40;;;333.00;2329.60;;;;;;5029196;28;20026;-59
2022/04/26 04:04:30;;;;;;;1.38;0.93;;;333.10;2329.60;;;;;;5029086;28;20033;-55
2022/04/26 04:06:55;;;;;;;1.17;0.90;;;333.00;2329.60;;;;;;5033414;28;20030;-55
2022/04/26 04:09:21;;;;;;;1.85;1.10;;;333.10;2329.60;;;;;;5032993;28;20056;-54
2022/04/26 04:11:47;;;;;;;4.35;2.10;;;333.00;2329.60;;;;;;5033408;28;20566;-54
2022/04/26 04:14:14;;;;;;;1.88;1.13;;;333.10;2329.60;;;;;;5033336;28;20101;-56
2022/04/26 04:16:40;;;;;;;2.83;1.35;;;333.20;2329.60;;;;;;5032788;28;20124;-56
2022/04/26 04:19:18;;;;;;;1.63;1.20;;;333.20;2329.60;;;;;;5033133;28;20431;-55
2022/04/26 04:21:45;;;;;;;1.83;1.08;;;333.30;2329.60;;;;;;5032890;28;20116;-55
2022/04/26 04:24:11;;;;;;;1.92;1.15;;;333.30;2329.60;;;;;;5032577;28;20037;-55
2022/04/26 04:26:37;;;;;;;2.58;1.13;;;333.40;2329.60;;;;;;5033071;28;20705;-54
2022/04/26 04:29:03;;;;;;;1.27;1.10;;;333.40;2329.60;;;;;;5032729;28;20026;-55
2022/04/26 04:31:29;;;;;;;2.03;1.08;;;333.50;2329.60;;;;;;5032270;28;20488;-56
2022/04/26 04:33:54;;;;;;;1.00;0.73;;;333.60;2329.60;;;;;;5032417;28;20034;-53
2022/04/26 04:36:20;;;;;;;1.30;0.90;;;333.70;2329.60;;;;;;5031809;28;20442;-55
2022/04/26 04:38:46;;;;;;;1.63;1.00;;;333.60;2329.60;;;;;;5031385;28;20056;-53
2022/04/26 04:41:12;;;;;;;1.17;0.82;;;333.70;2329.60;;;;;;5032554;28;20480;-55
2022/04/26 04:43:37;;;;;;;1.63;1.30;;;333.70;2329.60;;;;;;5032367;28;20048;-56
2022/04/26 04:46:03;;;;;;;1.25;1.13;;;435.30;2355.20;;;;;;5032317;28;20091;-56
2022/04/26 04:48:29;;;;;;;1.38;1.25;;;512.40;1868.80;;;;;;5031699;28;20063;-55
2022/04/26 04:50:54;;;;;;;2.00;1.40;;;563.80;1664.00;;;;;;5032521;28;20376;-56
2022/04/26 04:53:21;;;;;;;1.80;1.52;;;589.50;1561.60;;;;;;5032298;28;20034;-56
2022/04/26 04:55:47;;;;;;;6.78;2.45;;;614.80;1484.80;;;;;;5032562;28;20053;-56
2022/04/26 04:58:13;;;;;;;3.15;2.15;;;640.10;1408.00;;;;;;5032185;28;20061;-56
2022/04/26 05:00:39;;;;;;;2.88;2.15;;;665.70;1356.80;;;;;;5031764;28;20017;-55
2022/04/26 05:03:04;;;;;;;3.08;2.38;;;691.20;1305.60;;;;;;5028134;28;20029;-56
2022/04/26 05:05:30;;;;;;;2.67;1.90;;;716.90;1254.40;;;;;;5031156;28;20472;-57
2022/04/26 05:07:58;;;;;;;2.15;1.85;;;717.20;1203.20;;;;;;5032187;28;20048;-55
2022/04/26 05:10:24;;;;;;;5.43;1.83;;;716.90;1228.80;;;;;;5031536;28;20029;-56
2022/04/26 05:12:50;;;;;;;2.20;1.90;;;691.40;1254.40;;;;;;5031640;28;20480;-55
2022/04/26 05:15:15;;;;;;;3.67;2.08;;;691.90;1203.20;;;;;;5031377;28;20025;-56
2022/04/26 05:17:41;;;;;;;2.38;1.80;;;742.70;1177.60;;;;;;5031056;28;20426;-56
2022/04/26 05:20:08;;;;;;;2.55;2.17;;;768.30;1126.40;;;;;;5032957;28;20025;-56
2022/04/26 05:24:53;;;;;;;2.22;1.77;;;768.90;1100.80;;;;;;5032181;28;20061;-56
2022/04/26 05:25:20;;;;;;;2.92;2.10;;;793.80;1100.80;;;;;;5030264;28;20030;-58
2022/04/26 05:27:46;;;;;;;3.65;2.90;;;768.50;1100.80;;;;;;5030454;28;20029;-61
2022/04/26 05:30:12;;;;;;;5.85;3.70;;;793.70;1100.80;;;;;;5032207;28;20025;-64
2022/04/26 05:32:38;;;;;;;5.45;4.82;;;819.80;1049.60;;;;;;5032295;28;20030;-58
2022/04/26 05:35:05;;;;;;;3.90;3.25;;;845.30;1024.00;;;;;;5031277;28;20050;-62
2022/04/26 05:37:32;;;;;;;4.20;3.35;;;845.70;998.40;;;;;;5032166;28;20025;-59
2022/04/26 05:40:03;;;;;;;3.72;3.20;;;870.80;972.80;;;;;;5031342;28;20041;-62
2022/04/26 05:42:36;;;;;;;3.15;2.85;;;845.70;972.80;;;;;;5028602;28;20057;-60
2022/04/26 05:45:01;;;;;;;2.88;2.58;;;871.20;921.60;;;;;;5031906;28;20030;-62
2022/04/26 05:47:27;;;;;;;3.25;2.95;;;871.10;947.20;;;;;;5031044;28;20087;-59
2022/04/26 05:49:55;;;;;;;3.60;3.30;;;896.20;896.00;;;;;;5030841;28;20040;-62
2022/04/26 05:52:20;;;;;;;3.20;2.90;;;896.00;921.60;;;;;;5030147;28;20038;-62
2022/04/26 05:54:46;;;;;;;2.60;2.33;;;921.60;921.60;;;;;;5031093;28;20409;-66
2022/04/26 05:57:12;;;;;;;1.90;1.70;;;871.10;921.60;;;;;;5031341;28;20125;-64
2022/04/26 05:59:37;;;;;;;2.45;2.17;;;794.20;1049.60;;;;;;5031869;28;20032;-61
2022/04/26 06:02:03;;;;;;;3.50;2.70;;;768.90;1075.20;;;;;;5031826;28;20025;-61
2022/04/26 06:04:29;;;;;;;2.25;1.80;;;845.40;972.80;;;;;;5031909;28;20037;-64
2022/04/26 06:06:54;;;;;;;3.05;2.75;;;768.40;1075.20;;;;;;5032175;28;20097;-62
2022/04/26 06:09:20;;;;;;;2.63;1.98;;;768.90;1075.20;;;;;;5031718;28;20026;-59
2022/04/26 06:11:46;;;;;;;1.70;1.50;;;742.70;1152.00;;;;;;5032009;28;20026;-58
2022/04/26 06:14:12;;;;;;;5.00;4.60;;;717.40;1152.00;;;;;;5031865;28;20027;-64
2022/04/26 06:16:38;;;;;;;4.53;4.22;;;819.30;1049.60;;;;;;5031501;28;20112;-59
2022/04/26 06:19:04;;;;;;;5.25;4.45;;;845.10;998.40;;;;;;5031804;28;20025;-58
2022/04/26 06:21:29;;;;;;;4.82;4.53;;;871.30;947.20;;;;;;5031518;28;20033;-58
2022/04/26 06:23:55;;;;;;;4.75;4.35;;;896.90;921.60;;;;;;5031796;28;20477;-60
2022/04/26 06:26:22;;;;;;;4.63;4.30;;;921.90;896.00;;;;;;5031624;28;20025;-67
2022/04/26 06:28:47;;;;;;;5.47;5.07;;;947.40;896.00;;;;;;5030875;28;20056;-61
2022/04/26 06:31:13;;;;;;;5.05;4.75;;;948.10;870.40;;;;;;5031438;28;20061;-62
2022/04/26 06:33:39;;;;;;;5.18;4.78;;;973.50;870.40;;;;;;5031239;28;20041;-64
2022/04/26 06:36:06;;;;;;;5.82;5.47;;;998.60;870.40;;;;;;5031306;28;20128;-61
2022/04/26 06:38:32;;;;;;;5.75;5.38;;;973.60;844.80;;;;;;5029966;28;20025;-63
2022/04/26 06:40:57;;;;;;;5.78;5.38;;;973.50;844.80;;;;;;5031477;28;20028;-61
2022/04/26 06:43:23;;;;;;;7.18;6.78;;;973.70;844.80;;;;;;5031202;28;20075;-66
2022/04/26 06:45:49;;;;;;;6.60;6.20;;;998.70;844.80;;;;;;5031132;28;20033;-66
2022/04/26 06:48:15;;;;;;;6.30;5.90;;;998.80;844.80;;;;;;5030082;28;20049;-66
2022/04/26 06:50:42;;;;;;;5.65;5.25;;;1024.20;819.20;;;;;;5030909;28;20076;-63
2022/04/26 06:53:08;;;;;;;4.57;4.28;;;998.70;844.80;;;;;;5030823;28;20444;-70
2022/04/26 06:55:34;;;;;;;4.55;4.25;;;998.80;844.80;;;;;;5031161;28;20468;-69
2022/04/26 06:58:00;;;;;;;5.18;4.88;;;998.90;819.20;;;;;;5030757;28;20026;-71
2022/04/26 07:00:27;;;;;;;4.20;3.90;;;998.80;844.80;;;;;;5031060;28;20165;-63
2022/04/26 07:02:53;;;;;;;4.15;3.85;;;998.90;819.20;;;;;;5030740;28;20038;-71
2022/04/26 07:05:19;;;;;;;4.80;4.50;;;973.70;819.20;;;;;;5030779;28;20639;-70
2022/04/26 07:07:46;;;;;;;4.72;4.43;;;998.90;819.20;;;;;;5030826;28;20021;-71
2022/04/26 07:10:13;;;;;;;4.00;3.70;;;973.70;819.20;;;;;;5030842;28;20030;-71
2022/04/26 07:12:39;;;;;;;4.78;4.47;;;998.60;844.80;;;;;;5030409;28;20041;-72
2022/04/26 07:15:05;;;;;;;5.35;5.05;;;998.80;819.20;;;;;;5030714;28;20026;-69
2022/04/26 07:17:31;;;;;;;4.43;4.13;;;1024.70;793.60;;;;;;5030314;28;20028;-60
2022/04/26 07:20:00;;;;;;;4.55;4.25;;;999.10;819.20;;;;;;5029507;28;20038;-74
2022/04/26 07:22:26;;;;;;;5.03;4.70;;;999.00;819.20;;;;;;5030466;28;20415;-61
2022/04/26 07:24:52;;;;;;;5.35;4.88;;;999.20;793.60;;;;;;5030750;28;20031;-71
2022/04/26 07:27:20;;;;;;;4.75;4.45;;;1024.20;793.60;;;;;;5030409;28;20025;-62
2022/04/26 07:29:50;;;;;;;6.47;6.07;;;1024.10;793.60;;;;;;5030791;28;20037;-68
2022/04/26 07:32:15;;;;;;;5.85;5.55;;;1024.70;793.60;;;;;;5030457;28;20022;-68
2022/04/26 07:34:41;;;;;;;5.43;5.10;;;1024.90;793.60;;;;;;5029873;28;20063;-72
2022/04/26 07:37:07;;;;;;;6.22;5.90;;;1024.60;793.60;;;;;;5030419;28;20389;-74
2022/04/26 07:39:34;;;;;;;6.38;5.88;;;1050.20;768.00;;;;;;5029806;28;20547;-74
2022/04/26 07:42:02;;;;;;;5.78;5.45;;;1049.60;793.60;;;;;;5029933;28;20059;-68
2022/04/26 07:44:28;;;;;;;6.20;5.85;;;1024.70;768.00;;;;;;5030279;28;20040;-70
2022/04/26 07:46:54;;;;;;;5.75;5.32;;;1050.00;768.00;;;;;;5030148;28;20021;-70
2022/04/26 07:49:23;;;;;;;6.40;6.00;;;1075.50;742.40;;;;;;5030068;28;20021;-70
2022/04/26 07:51:49;;;;;;;6.22;5.65;;;1075.40;742.40;;;;;;5029960;28;20022;-61
2022/04/26 07:54:16;;;;;;;6.03;5.63;;;1050.30;768.00;;;;;;5030080;28;20025;-61
2022/04/26 07:56:42;;;;;;;5.65;5.35;;;999.10;793.60;;;;;;5029758;28;20022;-68
2022/04/26 07:59:08;;;;;;;6.28;5.88;;;1024.40;768.00;;;;;;5029907;28;20022;-67
2022/04/26 08:01:37;;;;;;;6.15;5.75;;;1050.50;768.00;;;;;;5029930;28;20029;-65
2022/04/26 08:04:04;;;;;;;5.60;5.30;;;1050.10;768.00;;;;;;5029745;28;20037;-67
2022/04/26 08:06:29;;;;;;;6.00;5.60;;;1075.70;716.80;;;;;;5029834;28;20163;-63
2022/04/26 08:08:55;;;;;;;6.20;5.88;;;1049.60;793.60;;;;;;5030013;28;20121;-67
2022/04/26 08:11:22;;;;;;;5.18;4.88;;;1050.00;768.00;;;;;;5029883;28;20033;-61
2022/04/26 08:13:48;;;;;;;6.25;5.93;;;1075.30;716.80;;;;;;5029535;28;20495;-61
2022/04/26 08:16:14;;;;;;;6.40;6.00;;;1049.90;768.00;;;;;;5029858;28;20029;-68
2022/04/26 08:18:40;;;;;;;5.68;5.38;;;1049.60;768.00;;;;;;5029700;28;20037;-66
2022/04/26 08:21:07;;;;;;;5.97;5.57;;;1049.80;742.40;;;;;;5029784;28;20025;-65
2022/04/26 08:27:22;;;;;;;6.10;5.80;;;1049.90;768.00;;;;;;5029802;28;20060;-61
2022/04/26 08:29:12;;;;;;;4.30;4.00;;;998.80;819.20;;;;;;5029720;28;20071;-64
2022/04/26 08:31:38;;;;;;;5.75;5.45;;;973.30;793.60;;;;;;5029987;28;20061;-62
2022/04/26 08:34:04;;;;;;;4.28;3.97;;;972.90;793.60;;;;;;5029678;28;20092;-67
2022/04/26 08:36:31;;;;;;;2.97;2.78;;;896.10;870.40;;;;;;5029867;28;20053;-66
2022/04/26 08:38:57;;;;;;;2.65;2.33;;;845.40;972.80;;;;;;5029914;28;20028;-64
2022/04/26 08:41:23;;;;;;;2.13;1.90;;;819.90;947.20;;;;;;5029746;28;20025;-62
2022/04/26 08:43:49;;;;;;;2.08;1.88;;;819.40;972.80;;;;;;5029345;28;20033;-62
2022/04/26 08:46:14;;;;;;;2.40;2.10;;;794.40;1024.00;;;;;;5029587;28;20040;-61
2022/04/26 08:51:24;;;;;;;1.70;1.60;;;768.80;998.40;;;;;;5031517;28;20050;-58
2022/04/26 08:53:50;;;;;;;2.00;1.80;;;768.30;1024.00;;;;;;5032882;28;20365;-60
2022/04/26 08:56:17;;;;;;;2.65;1.60;;;768.40;1024.00;;;;;;5033324;28;20033;-61
2022/04/26 08:58:43;;;;;;;2.22;1.90;;;768.00;1049.60;;;;;;5033090;28;20030;-59
2022/04/26 09:01:23;;;;;;;1.60;1.50;;;768.00;1024.00;;;;;;5032847;28;20086;-58
2022/04/26 09:03:55;;;;;;;1.50;1.40;;;742.50;1049.60;;;;;;5032955;28;20041;-59
2022/04/26 09:06:30;;;;;;;1.33;1.23;;;742.70;1049.60;;;;;;5032927;28;20427;-66
2022/04/26 09:09:07;;;;;;;1.73;1.52;;;742.40;1100.80;;;;;;5032997;28;20032;-61
2022/04/26 09:11:35;;;;;;;2.05;1.65;;;717.70;1075.20;;;;;;5032734;28;20087;-59
2022/04/26 09:14:02;;;;;;;1.90;1.70;;;717.30;1100.80;;;;;;5032411;28;20037;-65
2022/04/26 09:16:28;;;;;;;1.65;1.30;;;692.10;1100.80;;;;;;5032580;28;20026;-65
2022/04/26 09:18:59;;;;;;;2.17;1.67;;;691.20;1203.20;;;;;;5032661;28;20108;-66
2022/04/26 09:21:29;;;;;;;1.80;1.40;;;692.10;1126.40;;;;;;5032717;28;20407;-60
2022/04/26 09:23:57;;;;;;;1.88;1.67;;;716.90;1126.40;;;;;;5032645;28;20022;-62
2022/04/26 09:26:25;;;;;;;1.92;1.67;;;716.80;1100.80;;;;;;5032620;28;20113;-60
2022/04/26 09:28:51;;;;;;;1.55;1.33;;;692.10;1075.20;;;;;;5032589;28;20056;-60
2022/04/26 09:31:27;;;;;;;2.63;1.67;;;691.60;1100.80;;;;;;5032164;28;20056;-59
2022/04/26 09:33:59;;;;;;;1.70;1.40;;;691.30;1152.00;;;;;;5032356;28;20045;-62
2022/04/26 09:36:29;;;;;;;1.80;1.50;;;691.70;1152.00;;;;;;5032509;28;20065;-62
2022/04/26 09:39:03;;;;;;;1.77;1.60;;;691.50;1203.20;;;;;;5032372;28;20025;-60
2022/04/26 09:41:30;;;;;;;1.73;1.60;;;691.60;1126.40;;;;;;5032064;28;20029;-65
2022/04/26 09:44:08;;;;;;;3.35;1.85;;;692.00;1177.60;;;;;;5032432;28;20113;-65
2022/04/26 09:46:40;;;;;;;2.03;1.60;;;692.10;1126.40;;;;;;5032225;28;20036;-61
2022/04/26 09:49:06;;;;;;;1.77;1.30;;;640.90;1177.60;;;;;;5032197;28;20552;-66
2022/04/26 09:51:32;;;;;;;2.20;1.92;;;665.80;1203.20;;;;;;5031837;28;20055;-65
2022/04/26 09:53:58;;;;;;;2.35;1.38;;;666.10;1203.20;;;;;;5031972;28;20125;-63
2022/04/26 09:56:29;;;;;;;1.98;1.60;;;666.30;1203.20;;;;;;5032314;28;20056;-60
2022/04/26 09:58:57;;;;;;;1.42;1.30;;;691.30;1177.60;;;;;;5032294;28;20029;-64
2022/04/26 10:01:29;;;;;;;1.67;1.50;;;640.90;1177.60;;;;;;5032052;28;20033;-66
2022/04/26 10:04:03;;;;;;;1.33;1.23;;;615.20;1254.40;;;;;;5031547;28;20017;-61
2022/04/26 10:06:41;;;;;;;1.38;1.27;;;640.70;1203.20;;;;;;5031634;28;20503;-63
2022/04/26 10:09:09;;;;;;;1.77;1.15;;;666.00;1228.80;;;;;;5032014;28;20156;-65
2022/04/26 10:11:36;;;;;;;1.67;1.50;;;640.40;1228.80;;;;;;5031693;28;20036;-66
2022/04/26 10:14:05;;;;;;;1.95;1.50;;;640.60;1254.40;;;;;;5031530;28;20061;-60
2022/04/26 10:16:32;;;;;;;1.75;1.50;;;640.70;1228.80;;;;;;5031513;28;20025;-65
2022/04/26 10:19:09;;;;;;;1.45;1.23;;;640.50;1254.40;;;;;;5031517;28;20112;-65
2022/04/26 10:21:38;;;;;;;1.67;1.30;;;640.10;1280.00;;;;;;5031576;28;20018;-60
2022/04/26 10:24:23;;;;;;;2.50;1.77;;;615.10;1280.00;;;;;;5031395;28;20613;-66
2022/04/26 10:26:51;;;;;;;1.48;1.30;;;614.80;1305.60;;;;;;5031228;28;20388;-63
2022/04/26 10:29:22;;;;;;;1.40;1.30;;;614.80;1305.60;;;;;;5031207;28;20025;-64
2022/04/26 10:31:56;;;;;;;1.77;1.30;;;614.40;1331.20;;;;;;5031420;28;20048;-61
2022/04/26 10:34:28;;;;;;;2.17;1.40;;;614.80;1280.00;;;;;;5031052;28;20516;-65
2022/04/26 10:37:06;;;;;;;1.93;1.33;;;614.80;1331.20;;;;;;5031373;28;20034;-64
2022/04/26 10:39:42;;;;;;;3.22;1.35;;;614.70;1331.20;;;;;;5031030;28;20259;-62
2022/04/26 10:42:19;;;;;;;1.98;1.38;;;614.70;1331.20;;;;;;5030932;28;20079;-60
2022/04/26 10:44:47;;;;;;;1.02;1.02;;;614.80;1356.80;;;;;;5031074;28;20029;-64
2022/04/26 10:47:22;;;;;;;1.63;1.45;;;614.70;1331.20;;;;;;5031088;28;20025;-66
2022/04/26 10:49:48;;;;;;;1.60;1.38;;;614.80;1331.20;;;;;;5030779;28;20391;-60
2022/04/26 10:52:14;;;;;;;2.53;1.48;;;614.70;1331.20;;;;;;5030838;28;20535;-66
2022/04/26 10:54:46;;;;;;;3.75;1.73;;;614.90;1331.20;;;;;;5030545;28;20116;-62
2022/04/26 10:57:26;;;;;;;1.75;1.48;;;640.00;1305.60;;;;;;5030696;28;20022;-64
2022/04/26 11:00:10;;;;;;;1.38;1.20;;;640.20;1280.00;;;;;;5030748;28;20033;-64
2022/04/26 11:02:40;;;;;;;2.35;1.67;;;640.80;1305.60;;;;;;5030659;28;20538;-64
2022/04/26 11:05:17;;;;;;;1.50;1.38;;;665.70;1280.00;;;;;;5030836;28;20056;-65
2022/04/26 11:07:48;;;;;;;1.50;1.40;;;640.50;1305.60;;;;;;5030723;28;20037;-64
2022/04/26 11:10:16;;;;;;;1.75;1.42;;;615.20;1305.60;;;;;;5030797;28;20056;-64
2022/04/26 11:12:43;;;;;;;1.77;1.40;;;640.30;1305.60;;;;;;5030281;28;20493;-65
2022/04/26 11:15:15;;;;;;;4.85;1.90;;;640.10;1305.60;;;;;;5030530;28;20021;-65
2022/04/26 11:17:42;;;;;;;1.50;1.30;;;640.20;1305.60;;;;;;5030262;28;20036;-59
2022/04/26 11:20:17;;;;;;;1.80;1.33;;;640.30;1305.60;;;;;;5030479;28;20028;-63
2022/04/26 11:22:46;;;;;;;2.70;2.00;;;640.10;1305.60;;;;;;5030381;28;20475;-62
2022/04/26 11:28:03;;;;;;;1.85;1.50;;;614.70;1356.80;;;;;;5030602;28;20028;-60
2022/04/26 11:30:43;;;;;;;1.33;1.20;;;615.00;1356.80;;;;;;5030230;28;20060;-65
2022/04/26 11:33:22;;;;;;;1.98;1.55;;;614.80;1331.20;;;;;;5029832;28;20040;-62
2022/04/26 11:35:52;;;;;;;1.98;1.50;;;614.50;1356.80;;;;;;5029954;28;20065;-62
2022/04/26 11:38:18;;;;;;;1.98;1.33;;;614.90;1356.80;;;;;;5030138;28;20028;-64
2022/04/26 11:40:51;;;;;;;2.08;1.80;;;615.20;1305.60;;;;;;5030234;28;20029;-59
2022/04/26 11:43:19;;;;;;;1.77;1.40;;;640.40;1305.60;;;;;;5028973;28;20025;-63
2022/04/26 11:45:47;;;;;;;3.20;1.65;;;640.20;1280.00;;;;;;5030431;28;20037;-64
2022/04/26 11:48:18;;;;;;;1.70;1.40;;;615.10;1305.60;;;;;;5030182;28;20029;-65
2022/04/26 11:50:48;;;;;;;1.35;1.25;;;640.40;1305.60;;;;;;5030065;28;20030;-65
2022/04/26 11:53:17;;;;;;;2.33;1.60;;;640.70;1254.40;;;;;;5029971;28;20033;-64
2022/04/26 11:55:52;;;;;;;2.13;1.50;;;640.90;1356.80;;;;;;5030110;28;20139;-64
2022/04/26 11:58:20;;;;;;;1.70;1.60;;;665.60;1280.00;;;;;;5030005;28;20025;-63
2022/04/26 12:00:52;;;;;;;2.67;1.58;;;640.10;1280.00;;;;;;5029941;28;20032;-64
2022/04/26 12:03:19;;;;;;;1.48;1.23;;;640.70;1254.40;;;;;;5030064;28;20037;-62
2022/04/26 12:05:49;;;;;;;2.63;1.88;;;640.60;1305.60;;;;;;5030063;28;20057;-57
2022/04/26 12:08:15;;;;;;;16.80;8.95;;;640.80;1280.00;;;;;;5029978;28;20064;-65
2022/04/26 12:10:41;;;;;;;3.55;2.58;;;640.60;1280.00;;;;;;5029921;28;20072;-60
2022/04/26 12:13:07;;;;;;;2.10;1.70;;;665.60;1305.60;;;;;;5029796;28;20035;-58
2022/04/26 12:15:40;;;;;;;3.03;2.30;;;640.70;1280.00;;;;;;5029838;28;20112;-59
2022/04/26 12:18:07;;;;;;;3.55;2.58;;;640.50;1305.60;;;;;;5029746;28;20075;-64
2022/04/26 12:20:37;;;;;;;1.92;1.40;;;615.20;1331.20;;;;;;5029798;28;20037;-64
2022/04/26 12:23:05;;;;;;;2.22;1.90;;;615.00;1331.20;;;;;;5029985;28;20029;-62
2022/04/26 12:25:33;;;;;;;4.22;1.40;;;614.80;1356.80;;;;;;5029942;28;20480;-59
2022/04/26 12:28:07;;;;;;;2.63;1.52;;;614.80;1356.80;;;;;;5033729;28;20025;-64
2022/04/26 12:30:37;;;;;;;1.63;1.27;;;614.40;1356.80;;;;;;5033656;28;20041;-58
2022/04/26 12:33:04;;;;;;;2.35;1.58;;;614.60;1356.80;;;;;;5033623;28;20384;-63
2022/04/26 12:35:29;;;;;;;2.33;1.83;;;614.50;1356.80;;;;;;5033162;28;20050;-59
2022/04/26 12:38:06;;;;;;;3.03;1.65;;;614.70;1331.20;;;;;;5033720;28;20105;-58
2022/04/26 12:40:33;;;;;;;2.63;1.60;;;614.60;1356.80;;;;;;5033295;28;20112;-65
2022/04/26 12:42:59;;;;;;;2.72;1.83;;;614.80;1356.80;;;;;;5033470;28;20044;-63
2022/04/26 12:45:25;;;;;;;1.55;1.40;;;640.10;1305.60;;;;;;5033532;28;20025;-57
2022/04/26 12:50:55;;;;;;;2.25;1.60;;;614.80;1356.80;;;;;;5033589;28;20036;-64
2022/04/26 12:53:21;;;;;;;2.30;1.50;;;614.60;1382.40;;;;;;5033119;28;20033;-56
2022/04/26 12:55:47;;;;;;;2.15;1.52;;;589.70;1382.40;;;;;;5033313;28;20469;-58
2022/04/26 12:58:15;;;;;;;1.92;1.58;;;614.60;1382.40;;;;;;5033150;28;20033;-61
2022/04/26 13:00:43;;;;;;;2.03;1.52;;;614.40;1382.40;;;;;;5032836;28;20083;-59
2022/04/26 13:03:11;;;;;;;2.40;1.40;;;589.60;1382.40;;;;;;5032817;28;20105;-59
2022/04/26 13:05:45;;;;;;;1.92;1.50;;;614.40;1382.40;;;;;;5033192;28;20033;-62
2022/04/26 13:08:15;;;;;;;1.88;1.52;;;614.60;1356.80;;;;;;5032995;28;20025;-56
2022/04/26 13:10:42;;;;;;;2.25;1.67;;;614.40;1382.40;;;;;;5032795;28;20431;-64
2022/04/26 13:13:09;;;;;;;2.22;1.58;;;614.50;1356.80;;;;;;5032521;28;20045;-57
2022/04/26 13:15:36;;;;;;;2.70;1.50;;;589.70;1382.40;;;;;;5033110;28;20032;-56
2022/04/26 13:18:03;;;;;;;1.85;1.52;;;614.60;1356.80;;;;;;5032708;28;20396;-63
2022/04/26 13:20:29;;;;;;;2.30;2.03;;;614.60;1356.80;;;;;;5032653;28;20476;-65
2022/04/26 13:22:55;;;;;;;2.25;1.45;;;615.30;1356.80;;;;;;5033179;28;20460;-63
2022/04/26 13:25:21;;;;;;;2.40;1.45;;;615.20;1331.20;;;;;;5032592;28;20048;-64
2022/04/26 13:27:48;;;;;;;2.88;1.60;;;615.30;1331.20;;;;;;5032517;28;20052;-58
2022/04/26 13:30:15;;;;;;;2.22;1.50;;;615.30;1305.60;;;;;;5032555;28;20017;-63
2022/04/26 13:32:41;;;;;;;1.90;1.60;;;615.00;1331.20;;;;;;5032397;28;20388;-62
2022/04/26 13:35:07;;;;;;;2.38;1.65;;;614.80;1356.80;;;;;;5032319;28;20045;-57
2022/04/26 13:37:34;;;;;;;2.20;1.58;;;614.50;1356.80;;;;;;5031363;28;20033;-57
2022/04/26 13:40:01;;;;;;;1.70;1.30;;;589.60;1382.40;;;;;;5032260;28;20116;-59
2022/04/26 13:42:30;;;;;;;1.85;1.63;;;589.60;1356.80;;;;;;5032415;28;20026;-57
2022/04/26 13:44:56;;;;;;;3.13;1.50;;;589.50;1382.40;;;;;;5032385;28;20029;-56
2022/04/26 13:47:22;;;;;;;2.25;1.65;;;589.50;1382.40;;;;;;5032097;28;20384;-64
2022/04/26 13:49:48;;;;;;;1.90;1.40;;;589.60;1356.80;;;;;;5032176;28;20427;-64
2022/04/26 13:52:15;;;;;;;2.35;1.58;;;614.60;1408.00;;;;;;5031992;28;20029;-58
2022/04/26 13:54:42;;;;;;;3.15;1.58;;;614.70;1356.80;;;;;;5031875;28;20491;-62
2022/04/26 13:57:08;;;;;;;1.98;1.58;;;614.80;1331.20;;;;;;5031852;28;20459;-56
2022/04/26 13:59:35;;;;;;;2.38;1.88;;;615.10;1305.60;;;;;;5032023;28;20052;-64
2022/04/26 14:02:01;;;;;;;1.67;1.40;;;615.10;1305.60;;;;;;5031851;28;20384;-64
2022/04/26 14:04:26;;;;;;;2.03;1.50;;;614.60;1331.20;;;;;;5032213;28;20025;-55
2022/04/26 14:06:52;;;;;;;2.40;1.73;;;614.70;1331.20;;;;;;5031684;28;20037;-56
2022/04/26 14:09:18;;;;;;;2.05;1.50;;;614.60;1331.20;;;;;;5031749;28;20152;-57
2022/04/26 14:11:48;;;;;;;2.40;1.70;;;614.80;1356.80;;;;;;5031714;28;20383;-57
2022/04/26 14:22:32;;;;;;;1.75;1.45;;;615.10;1382.40;;;;;;5031403;28;20052;-58
2022/04/26 14:25:03;;;;;;;2.40;1.65;;;640.00;1356.80;;;;;;5031632;28;20038;-58
2022/04/26 14:27:30;;;;;;;1.88;1.38;;;640.00;1331.20;;;;;;5031183;28;20018;-57
2022/04/26 14:29:56;;;;;;;2.00;1.50;;;615.30;1331.20;;;;;;5031659;28;20025;-56
2022/04/26 14:32:22;;;;;;;2.05;1.48;;;614.70;1331.20;;;;;;5031062;28;20029;-58
2022/04/26 14:34:48;;;;;;;2.58;1.60;;;614.70;1356.80;;;;;;5030830;28;20128;-57
2022/04/26 14:37:15;;;;;;;1.60;1.30;;;614.40;1382.40;;;;;;5031353;28;20109;-65
2022/04/26 14:39:41;;;;;;;2.88;1.60;;;589.70;1382.40;;;;;;5031073;28;20021;-57
2022/04/26 14:42:08;;;;;;;2.15;1.50;;;589.70;1382.40;;;;;;5029198;28;20412;-57
2022/04/26 14:44:34;;;;;;;2.85;1.92;;;589.60;1382.40;;;;;;5029615;28;20100;-61
2022/04/26 14:47:02;;;;;;;2.80;2.00;;;589.30;1408.00;;;;;;5028123;28;20400;-57
2022/04/26 14:49:29;;;;;;;2.60;1.67;;;588.80;1408.00;;;;;;5029183;28;20545;-57
2022/04/26 14:51:54;;;;;;;4.55;2.63;;;564.10;1433.60;;;;;;5029501;28;20132;-60
2022/04/26 14:54:21;;;;;;;2.90;1.80;;;563.80;1433.60;;;;;;5028714;28;20120;-62
2022/04/26 14:56:47;;;;;;;3.75;1.58;;;563.90;1433.60;;;;;;5028552;28;20109;-65
2022/04/26 14:59:15;;;;;;;2.67;1.70;;;563.90;1484.80;;;;;;5027860;28;20029;-65
2022/04/26 15:01:45;;;;;;;4.00;1.80;;;564.00;1459.20;;;;;;5028560;28;20108;-66
2022/04/26 15:04:10;;;;;;;2.15;1.50;;;588.80;1459.20;;;;;;5028603;28;20167;-56
2022/04/26 15:06:36;;;;;;;3.03;1.77;;;589.00;1433.60;;;;;;5036823;28;20485;-67
2022/04/26 15:11:47;;;;;;;2.22;1.65;;;589.20;1433.60;;;;;;5041500;28;20056;-63
2022/04/26 15:16:57;;;;;;;1.95;1.45;;;589.00;1433.60;;;;;;5038887;28;20055;-57
2022/04/26 15:19:23;;;;;;;2.20;1.75;;;589.10;1433.60;;;;;;5039610;28;20033;-58
2022/04/26 15:21:48;;;;;;;2.75;1.73;;;589.00;1408.00;;;;;;5039460;28;20026;-56
2022/04/26 15:24:15;;;;;;;2.58;1.67;;;589.10;1433.60;;;;;;5033033;28;20030;-57
2022/04/26 15:26:41;;;;;;;2.53;1.70;;;589.10;1408.00;;;;;;5028686;28;20038;-60
2022/04/26 15:29:07;;;;;;;2.40;1.80;;;589.40;1433.60;;;;;;5026352;28;20028;-58
2022/04/26 15:31:34;;;;;;;2.95;1.77;;;589.60;1382.40;;;;;;5029720;28;20416;-57
2022/04/26 15:34:00;;;;;;;2.33;1.80;;;614.40;1382.40;;;;;;5029977;28;20041;-63
2022/04/26 15:36:26;;;;;;;2.13;1.67;;;614.50;1408.00;;;;;;5030499;28;20048;-61
2022/04/26 15:38:56;;;;;;;1.75;1.58;;;589.60;1408.00;;;;;;5030231;28;20036;-60
2022/04/26 15:41:24;;;;;;;2.20;1.50;;;589.70;1408.00;;;;;;5030069;28;20030;-64
2022/04/26 15:43:50;;;;;;;1.63;1.40;;;589.70;1382.40;;;;;;5029734;28;20487;-64
2022/04/26 15:46:16;;;;;;;3.28;2.00;;;589.50;1408.00;;;;;;5030120;28;20057;-60
2022/04/26 15:48:48;;;;;;;2.75;1.95;;;589.30;1408.00;;;;;;5029064;28;20029;-65
2022/04/26 15:51:16;;;;;;;2.42;1.70;;;589.20;1408.00;;;;;;5030312;28;20128;-66
2022/04/26 15:53:43;;;;;;;2.20;1.67;;;589.20;1408.00;;;;;;5029132;28;20503;-62
2022/04/26 15:56:08;;;;;;;2.20;1.70;;;589.10;1408.00;;;;;;5028681;28;20027;-57
2022/04/26 15:58:34;;;;;;;2.42;1.63;;;589.00;1408.00;;;;;;5028379;28;20096;-63
2022/04/26 16:01:00;;;;;;;2.40;1.80;;;589.00;1408.00;;;;;;5027680;28;20044;-59
2022/04/26 16:03:26;;;;;;;2.58;1.67;;;589.00;1433.60;;;;;;5028270;28;20037;-64
2022/04/26 16:05:51;;;;;;;2.92;1.95;;;588.90;1408.00;;;;;;5028122;28;20033;-61
2022/04/26 16:08:17;;;;;;;2.05;1.55;;;589.00;1408.00;;;;;;5028783;28;20034;-59
2022/04/26 16:21:40;;;;;;;2.22;1.70;;;564.00;1484.80;;;;;;5030148;28;20033;-65
2022/04/26 16:24:06;;;;;;;2.22;1.67;;;564.00;1459.20;;;;;;5030199;28;20029;-65
2022/04/26 16:26:34;;;;;;;4.35;2.83;;;563.90;1459.20;;;;;;5029728;28;20026;-61
2022/04/26 16:29:03;;;;;;;2.80;1.70;;;563.80;1459.20;;;;;;5030010;28;20092;-59
2022/04/26 16:31:30;;;;;;;3.00;1.98;;;564.00;1484.80;;;;;;5029810;28;20468;-60
2022/04/26 16:33:57;;;;;;;2.33;1.70;;;563.90;1484.80;;;;;;5029532;28;20492;-60